createdAt,value
2018-02-27T21:02:39.079Z,76.70
2018-02-27T21:03:44.570Z,76.89
2018-02-27T21:05:43.113Z,75.75
2018-02-27T21:06:48.658Z,75.38
2018-02-27T21:07:54.179Z,75.28
2018-02-27T21:08:59.630Z,75.28
2018-02-27T21:10:05.406Z,74.71
2018-02-27T21:11:10.748Z,74.34
2018-02-27T21:12:16.232Z,74.62
2018-02-27T21:13:21.803Z,74.15
2018-02-27T21:14:27.452Z,74.71
2018-02-27T21:15:32.887Z,72.92
2018-02-27T21:16:38.390Z,72.74
2018-02-27T21:17:43.966Z,72.83
2018-02-27T21:18:49.309Z,72.08
2018-02-27T21:19:54.822Z,71.51
2018-02-27T21:21:00.348Z,72.83
2018-02-27T21:22:05.872Z,71.61
2018-02-27T21:23:11.443Z,71.70
2018-02-27T21:24:16.902Z,71.33
2018-02-27T21:25:22.432Z,70.57
2018-02-27T21:26:28.174Z,70.38
2018-02-27T21:27:33.466Z,70.67
2018-02-27T21:28:39.054Z,70.95
2018-02-27T21:29:44.504Z,70.48
2018-02-27T21:30:50.023Z,71.61
2018-02-27T21:31:55.668Z,69.91
2018-02-27T21:33:01.071Z,69.25
2018-02-27T21:34:06.588Z,68.87
2018-02-27T21:35:12.225Z,68.78
2018-02-27T21:36:17.624Z,69.25
2018-02-27T21:37:23.150Z,69.53
2018-02-27T21:38:28.666Z,69.72
2018-02-27T21:39:34.189Z,69.16
2018-02-27T21:40:39.708Z,69.25
2018-02-27T21:41:45.227Z,69.44
2018-02-27T21:42:50.753Z,68.97
2018-02-27T21:43:56.405Z,69.72
2018-02-27T21:45:02.838Z,69.53
2018-02-27T21:46:07.311Z,69.63
2018-02-27T21:47:12.830Z,69.06
2018-02-27T21:48:18.351Z,69.72
2018-02-27T21:49:23.871Z,70.19
2018-02-27T21:50:29.392Z,69.06
2018-02-27T21:51:34.920Z,69.06
2018-02-27T21:52:40.434Z,69.16
2018-02-27T21:53:45.954Z,68.97
2018-02-27T21:54:51.476Z,69.82
2018-02-27T21:55:56.997Z,69.72
2018-02-27T21:57:02.516Z,70.57
2018-02-27T21:58:08.042Z,70.76
2018-02-27T21:59:13.560Z,70.76
2018-02-27T22:00:19.077Z,70.38
2018-02-27T22:01:24.603Z,71.23
2018-02-27T22:02:30.129Z,71.89
2018-02-27T22:03:35.641Z,72.64
2018-02-27T22:04:41.161Z,71.70
2018-02-27T22:05:46.682Z,70.29
2018-02-27T22:06:52.205Z,71.23
2018-02-27T22:07:57.726Z,71.42
2018-02-27T22:09:03.246Z,71.98
2018-02-27T22:10:08.762Z,71.80
2018-02-27T22:11:14.285Z,71.61
2018-02-27T22:12:19.837Z,71.80
2018-02-27T22:13:25.325Z,70.95
2018-02-27T22:14:30.844Z,71.14
2018-02-27T22:15:36.371Z,70.86
2018-02-27T22:16:41.889Z,71.04
2018-02-27T22:17:47.412Z,70.95
2018-02-27T22:18:52.930Z,70.29
2018-02-27T22:19:58.456Z,71.61
2018-02-27T22:21:03.977Z,72.83
2018-02-27T22:22:09.492Z,73.58
2018-02-27T22:23:15.019Z,73.49
2018-02-27T22:24:20.534Z,73.49
2018-02-27T22:25:26.058Z,73.58
2018-02-27T22:26:31.576Z,72.83
2018-02-27T22:27:37.104Z,72.92
2018-02-27T22:28:42.623Z,74.34
2018-02-27T22:29:48.249Z,72.70
2018-02-27T22:30:53.659Z,70.34
2018-02-27T22:31:59.185Z,70.44
2018-02-27T22:33:04.704Z,71.04
2018-02-27T22:34:10.227Z,71.42
2018-02-27T22:35:15.746Z,72.55
2018-02-27T22:36:21.266Z,73.02
2018-02-27T22:37:26.788Z,73.58
2018-02-27T22:38:32.310Z,73.96
2018-02-27T22:39:37.826Z,73.49
2018-02-27T22:40:43.354Z,71.80
2018-02-27T22:41:48.868Z,71.14
2018-02-27T22:42:54.393Z,71.33
2018-02-27T22:43:59.917Z,70.29
2018-02-27T22:45:05.432Z,70.57
2018-02-27T22:46:10.958Z,71.42
2018-02-27T22:47:16.478Z,71.51
2018-02-27T22:48:22.023Z,71.33
2018-02-27T22:49:27.521Z,70.53
2018-02-27T22:50:33.045Z,70.38
2018-02-27T22:51:38.566Z,71.66
2018-02-27T22:52:44.083Z,72.83
2018-02-27T22:53:49.622Z,72.45
2018-02-27T22:54:55.124Z,73.49
2018-02-27T22:56:00.646Z,74.53
2018-02-27T22:57:06.167Z,75.09
2018-02-27T22:58:11.687Z,74.43
2018-02-27T22:59:17.207Z,72.55
2018-02-27T23:00:22.734Z,71.14
2018-02-27T23:01:28.255Z,70.72
2018-02-27T23:02:33.777Z,71.29
2018-02-27T23:03:39.298Z,72.42
2018-02-27T23:04:44.816Z,72.51
2018-02-27T23:05:50.333Z,72.61
2018-02-27T23:06:55.868Z,73.46
2018-02-27T23:08:01.384Z,73.17
2018-02-27T23:09:06.898Z,73.93
2018-02-27T23:10:12.416Z,73.36
2018-02-27T23:11:17.940Z,73.27
2018-02-27T23:12:23.466Z,73.08
2018-02-27T23:13:28.992Z,72.33
2018-02-27T23:14:34.500Z,72.70
2018-02-27T23:15:40.030Z,73.17
2018-02-27T23:16:45.558Z,73.65
2018-02-27T23:17:51.076Z,74.21
2018-02-27T23:18:56.588Z,73.46
2018-02-27T23:20:02.114Z,73.08
2018-02-27T23:21:07.637Z,72.51
2018-02-27T23:22:13.154Z,73.65
2018-02-27T23:23:18.674Z,75.34
2018-02-27T23:24:24.201Z,74.40
2018-02-27T23:25:32.479Z,74.21
2018-02-27T23:26:35.749Z,74.40
2018-02-27T23:27:40.798Z,74.40
2018-02-27T23:28:46.308Z,74.49
2018-02-27T23:29:51.797Z,74.87
2018-02-27T23:30:57.366Z,75.05
2018-02-27T23:32:02.850Z,73.74
2018-02-27T23:33:08.361Z,72.61
2018-02-27T23:34:13.878Z,71.66
2018-02-27T23:35:19.412Z,72.61
2018-02-27T23:36:24.929Z,72.51
2018-02-27T23:37:30.447Z,73.36
2018-02-27T23:38:35.968Z,74.02
2018-02-27T23:39:41.498Z,74.02
2018-02-27T23:40:47.007Z,75.15
2018-02-27T23:41:52.540Z,74.96
2018-02-27T23:42:58.073Z,74.49
2018-02-27T23:44:03.572Z,74.49
2018-02-27T23:45:09.095Z,75.24
2018-02-27T23:46:14.614Z,75.62
2018-02-27T23:47:20.139Z,75.43
2018-02-27T23:48:25.655Z,74.87
2018-02-27T23:49:31.312Z,75.43
2018-02-27T23:50:36.701Z,75.24
2018-02-27T23:51:42.223Z,74.30
2018-02-27T23:52:47.816Z,73.27
2018-02-27T23:53:53.272Z,73.08
2018-02-27T23:54:58.787Z,72.99
2018-02-27T23:56:04.304Z,74.68
2018-02-27T23:57:09.832Z,73.83
2018-02-27T23:58:15.400Z,73.65
2018-02-27T23:59:20.873Z,74.02
